Time;durP1;ratioP1;P1;durP2;ratioP2;P2;SDS_P1;SDS_P2;PMS_P1;PMS_P2;Temp;Humidity;BMP_temperature;BMP_pressure;BME280_temperature;BME280_humidity;BME280_pressure;Samples;Min_cycle;Max_cycle;Signal;HPM_P1;HPM_P2
2022/09/11 00:00:31;;;;;;;10.07;4.47;;;;;;;27.16;59.23;98552.28;6090174;23;20176;-96
2022/09/11 00:03:18;;;;;;;8.88;4.45;;;;;;;27.20;58.94;98561.63;6092584;23;20176;-96
2022/09/11 00:05:45;;;;;;;8.40;3.72;;;;;;;27.20;59.01;98553.56;6118071;23;20145;-96
2022/09/11 00:08:20;;;;;;;5.60;3.88;;;;;;;27.22;58.68;98551.50;6118377;23;20156;-96
2022/09/11 00:10:51;;;;;;;10.10;4.57;;;;;;;27.28;58.44;98546.13;6094452;23;20144;-96
2022/09/11 00:13:27;;;;;;;9.30;3.83;;;;;;;27.33;58.36;98546.34;6090149;23;20172;-96
2022/09/11 00:15:56;;;;;;;9.88;4.97;;;;;;;27.31;58.32;98548.41;6093357;23;20160;-96
2022/09/11 00:18:28;;;;;;;10.90;4.10;;;;;;;27.28;58.67;98548.00;6091529;23;20167;-96
2022/09/11 00:20:59;;;;;;;7.75;4.45;;;;;;;27.20;58.76;98554.34;6093167;23;20153;-96
2022/09/11 00:23:26;;;;;;;9.57;4.70;;;;;;;27.20;58.70;98554.34;6092266;23;20196;-96
2022/09/11 00:25:54;;;;;;;6.55;4.50;;;;;;;27.24;58.53;98549.41;6086615;23;20156;-96
2022/09/11 00:28:23;;;;;;;16.15;5.32;;;;;;;27.16;58.49;98553.13;6083636;23;20235;-96
2022/09/11 00:31:20;;;;;;;7.15;4.18;;;;;;;27.14;58.32;98559.72;6085528;23;20156;-96
2022/09/11 00:33:47;;;;;;;10.32;4.15;;;;;;;27.11;58.31;98554.75;6056960;23;20160;-96
2022/09/11 00:36:15;;;;;;;7.57;4.03;;;;;;;27.11;58.52;98554.75;6085679;23;20164;-96
2022/09/11 00:38:45;;;;;;;9.68;4.28;;;;;;;27.11;58.60;98554.75;6088396;23;20180;-96
2022/09/11 00:41:20;;;;;;;8.70;4.28;;;;;;;27.03;58.71;98544.97;6087600;23;20180;-96
2022/09/11 00:44:27;;;;;;;8.10;3.80;;;;;;;26.98;58.54;98547.44;6092432;23;20533;-96
2022/09/11 00:47:00;;;;;;;8.55;3.65;;;;;;;26.95;58.29;98547.81;6089477;23;20192;-96
2022/09/11 00:49:43;;;;;;;6.55;4.30;;;;;;;26.85;58.90;98550.06;6091314;23;20171;-96
2022/09/11 00:52:19;;;;;;;9.18;4.43;;;;;;;26.70;59.79;98546.63;6090816;23;20156;-96
2022/09/11 00:54:55;;;;;;;10.65;4.68;;;;;;;26.60;60.52;98546.94;6086320;23;20151;-96
2022/09/11 00:57:23;;;;;;;5.50;3.80;;;;;;;26.62;60.55;98550.28;6086235;23;20160;-96
2022/09/11 00:59:51;;;;;;;7.60;4.63;;;;;;;26.63;60.70;98559.16;6084831;23;20184;-96
2022/09/11 01:02:21;;;;;;;8.45;4.40;;;;;;;26.61;60.67;98559.38;6085599;23;20251;-96
2022/09/11 01:04:46;;;;;;;6.57;4.10;;;;;;;26.58;60.79;98559.75;6084569;23;20156;-96
2022/09/11 01:07:16;;;;;;;9.90;4.32;;;;;;;26.57;60.64;98551.91;6084554;23;20226;-96
2022/09/11 01:09:42;;;;;;;6.85;3.67;;;;;;;26.54;60.99;98553.13;6084461;23;20229;-96
2022/09/11 01:12:15;;;;;;;6.50;3.60;;;;;;;26.54;60.61;98550.44;6083948;23;20180;-96
2022/09/11 01:15:02;;;;;;;7.40;3.60;;;;;;;26.58;60.65;98553.56;6084731;23;20244;-96
2022/09/11 01:17:40;;;;;;;6.87;3.87;;;;;;;26.58;60.40;98543.63;6084517;23;20149;-96
2022/09/11 01:20:27;;;;;;;8.20;3.80;;;;;;;26.39;60.98;98544.31;6086216;23;20191;-96
2022/09/11 01:23:14;;;;;;;7.40;3.55;;;;;;;26.36;61.09;98544.72;6082653;23;20141;-96
2022/09/11 01:26:07;;;;;;;7.93;3.55;;;;;;;26.31;61.23;98543.66;6082759;23;20231;-96
2022/09/11 01:29:04;;;;;;;6.20;3.78;;;;;;;26.27;61.34;98542.34;6086106;23;20144;-96
2022/09/11 01:31:39;;;;;;;7.30;3.10;;;;;;;26.12;61.61;98534.38;6083264;23;20160;-96
2022/09/11 01:34:24;;;;;;;7.30;3.40;;;;;;;26.05;62.36;98536.97;6081142;23;20557;-96
2022/09/11 01:37:01;;;;;;;5.40;2.97;;;;;;;25.84;62.80;98547.72;6079925;23;20623;-96
2022/09/11 01:39:34;;;;;;;7.03;3.20;;;;;;;25.96;62.56;98540.84;6078422;23;20172;-96
2022/09/11 01:42:06;;;;;;;7.20;2.83;;;;;;;26.14;62.10;98535.84;6077749;23;20141;-96
2022/09/11 01:44:42;;;;;;;8.63;2.93;;;;;;;26.23;61.25;98539.25;6079198;23;20231;-96
2022/09/11 01:47:10;;;;;;;7.87;3.40;;;;;;;26.35;60.98;98542.22;6078564;23;20470;-96
2022/09/11 01:49:47;;;;;;;6.33;3.13;;;;;;;26.30;61.73;98533.91;6078048;23;20152;-96
2022/09/11 01:52:26;;;;;;;7.23;3.93;;;;;;;26.35;61.24;98532.31;6080032;23;20140;-96
2022/09/11 01:55:01;;;;;;;6.10;3.83;;;;;;;26.39;60.77;98530.06;6080124;23;20148;-96
2022/09/11 01:57:36;;;;;;;7.20;3.50;;;;;;;26.34;61.14;98527.09;6080338;23;20227;-96
2022/09/11 02:00:07;;;;;;;12.63;4.20;;;;;;;26.37;60.68;98535.63;6081792;23;20176;-96
2022/09/11 02:02:59;;;;;;;8.43;4.53;;;;;;;26.37;60.99;98537.47;6079679;23;20168;-96
2022/09/11 02:05:56;;;;;;;14.60;4.80;;;;;;;26.37;61.03;98540.16;6083771;23;20160;-96
2022/09/11 02:08:55;;;;;;;7.50;4.07;;;;;;;26.38;61.02;98539.16;6082776;23;20191;-96
2022/09/11 02:11:24;;;;;;;8.10;4.43;;;;;;;26.36;61.48;98536.66;6099962;23;20156;-96
2022/09/11 02:14:30;;;;;;;9.37;3.67;;;;;;;26.34;61.29;98535.16;6084079;23;20160;-96
2022/09/11 02:17:15;;;;;;;6.63;3.80;;;;;;;26.24;61.36;98532.81;6086618;23;20145;-96
2022/09/11 02:19:51;;;;;;;12.67;4.10;;;;;;;26.23;61.32;98529.31;6085718;23;20207;-96
2022/09/11 02:22:24;;;;;;;7.33;3.93;;;;;;;26.23;61.32;98523.94;6084177;23;20220;-96
2022/09/11 02:25:15;;;;;;;7.77;3.87;;;;;;;26.15;61.53;98521.38;6083790;23;20179;-96
2022/09/11 02:27:54;;;;;;;8.63;3.50;;;;;;;26.10;61.69;98521.09;6089245;23;20155;-96
2022/09/11 02:34:36;;;;;;;5.37;3.20;;;;;;;25.89;62.36;98525.69;6028497;23;20158;-96
2022/09/11 02:37:31;;;;;;;10.53;3.77;;;;;;;25.77;62.62;98536.09;6001793;23;20200;-95
2022/09/11 02:40:26;;;;;;;7.87;3.67;;;;;;;25.54;63.32;98530.91;6091997;23;20262;-96
2022/09/11 02:43:17;;;;;;;7.07;3.47;;;;;;;25.49;63.51;98533.34;6094482;23;20584;-96
2022/09/11 02:46:34;;;;;;;6.47;3.57;;;;;;;25.53;63.19;98539.97;6088836;23;20182;-96
2022/09/11 02:49:53;;;;;;;7.87;3.80;;;;;;;25.68;62.84;98533.72;6084754;23;20152;-96
2022/09/11 02:52:49;;;;;;;7.03;3.20;;;;;;;25.48;63.54;98528.97;6090285;23;20156;-96
2022/09/11 02:55:57;;;;;;;6.97;3.70;;;;;;;25.47;63.67;98526.50;6085499;23;20251;-96
2022/09/11 02:58:44;;;;;;;9.80;3.97;;;;;;;25.45;63.76;98531.16;6087472;23;20156;-96
2022/09/11 03:01:12;;;;;;;6.57;3.20;;;;;;;25.56;63.26;98530.69;6087553;23;20164;-96
2022/09/11 03:03:42;;;;;;;10.60;3.80;;;;;;;25.54;63.11;98530.06;6086004;23;20479;-96
2022/09/11 03:06:21;;;;;;;6.80;3.73;;;;;;;25.39;63.46;98532.75;6092633;23;20166;-96
2022/09/11 03:08:51;;;;;;;7.03;3.50;;;;;;;25.44;63.42;98529.53;6088186;23;20144;-96
2022/09/11 03:11:27;;;;;;;6.53;3.30;;;;;;;25.55;62.69;98539.81;6085498;23;20153;-96
2022/09/11 03:14:03;;;;;;;;;;;;;;;;;;;;;
2022/09/11 03:16:42;;;;;;;;;;;;;;;;;;;;;
2022/09/11 03:19:08;;;;;;;9.77;3.47;;;;;;;25.55;62.07;98545.16;6113070;23;20196;-96
2022/09/11 03:21:41;;;;;;;5.30;3.17;;;;;;;25.31;63.14;98540.09;6090248;23;20168;-96
2022/09/11 03:24:27;;;;;;;7.47;2.80;;;;;;;25.23;63.07;98538.34;6086416;23;20148;-96
2022/09/11 03:26:59;;;;;;;5.90;2.63;;;;;;;25.19;63.23;98544.25;6079506;23;20164;-96
2022/09/11 03:29:25;;;;;;;6.60;3.10;;;;;;;25.13;63.20;98542.34;6085787;23;20152;-96
2022/09/11 03:31:50;;;;;;;9.23;3.13;;;;;;;25.03;63.66;98554.19;6083239;23;20156;-96
2022/09/11 03:34:18;;;;;;;6.90;4.07;;;;;;;25.12;63.16;98559.44;6085217;23;20212;-96
2022/09/11 03:36:46;;;;;;;7.20;3.30;;;;;;;25.17;62.82;98562.41;6084659;23;20188;-96
2022/09/11 03:39:30;;;;;;;6.77;2.80;;;;;;;24.91;63.06;98563.72;6084377;23;20181;-96
2022/09/11 03:41:59;;;;;;;6.13;2.93;;;;;;;24.83;63.58;98561.13;6089447;23;20141;-96
2022/09/11 03:44:29;;;;;;;4.03;2.43;;;;;;;24.65;63.73;98563.31;6085835;23;20212;-96
2022/09/11 03:47:19;;;;;;;7.53;3.00;;;;;;;24.70;63.31;98560.91;6083282;23;20212;-95
2022/09/11 03:49:44;;;;;;;5.67;3.03;;;;;;;24.67;63.55;98571.16;6075880;23;20161;-95
2022/09/11 03:52:10;;;;;;;7.30;3.47;;;;;;;24.68;63.37;98573.66;6087721;23;20199;-96
2022/09/11 03:54:42;;;;;;;8.33;2.97;;;;;;;24.75;63.28;98571.06;6089849;23;20171;-96
2022/09/11 03:57:10;;;;;;;5.60;2.73;;;;;;;24.86;62.34;98571.50;6090231;23;20211;-96
2022/09/11 03:59:55;;;;;;;7.73;2.67;;;;;;;24.86;62.76;98565.28;6089533;23;20232;-95
2022/09/11 04:02:40;;;;;;;6.90;3.13;;;;;;;24.88;62.52;98564.09;6085233;23;20156;-96
2022/09/11 04:05:12;;;;;;;4.97;2.83;;;;;;;24.67;63.39;98572.00;6110609;23;20234;-96
2022/09/11 04:07:38;;;;;;;5.63;3.20;;;;;;;24.67;63.16;98572.00;6084557;23;20152;-96
2022/09/11 04:10:36;;;;;;;;;;;;;;;;;;;;;
2022/09/11 04:12:58;;;;;;;7.27;3.20;;;;;;;24.51;64.35;98577.50;6107703;23;20237;-96
2022/09/11 04:15:55;;;;;;;;;;;;;;;;;;;;;
2022/09/11 04:18:43;;;;;;;7.60;3.17;;;;;;;24.68;64.58;98583.56;6119798;23;20153;-96
2022/09/11 04:21:17;;;;;;;5.33;2.67;;;;;;;24.79;64.29;98589.31;6089028;23;20231;-96
2022/09/11 04:23:44;;;;;;;5.87;2.87;;;;;;;24.85;63.93;98591.25;6117448;23;20147;-96
2022/09/11 04:26:33;;;;;;;6.07;2.73;;;;;;;24.84;64.09;98589.59;6087555;23;20199;-96
2022/09/11 04:29:00;;;;;;;7.40;3.40;;;;;;;24.83;64.09;98592.47;6072206;23;20180;-96
2022/09/11 04:31:31;;;;;;;4.63;2.80;;;;;;;24.97;63.65;98589.78;6083876;23;20164;-96
2022/09/11 04:34:01;;;;;;;7.10;2.90;;;;;;;24.94;63.65;98590.16;6083447;23;20160;-96
2022/09/11 04:36:32;;;;;;;5.53;3.33;;;;;;;25.08;63.00;98590.34;6079950;23;20157;-96
2022/09/11 04:38:59;;;;;;;5.73;3.37;;;;;;;25.18;62.91;98599.78;6080424;23;20180;-95
2022/09/11 04:41:26;;;;;;;5.20;2.50;;;;;;;25.28;62.42;98594.97;6079392;23;20211;-96
2022/09/11 04:44:03;;;;;;;6.77;3.40;;;;;;;25.33;62.39;98589.88;6078784;23;20157;-96
2022/09/11 04:46:29;;;;;;;9.10;3.60;;;;;;;25.36;62.37;98594.03;6079269;23;20155;-96
2022/09/11 04:48:58;;;;;;;7.63;3.53;;;;;;;25.36;62.73;98599.38;6079615;23;20156;-96
2022/09/11 04:51:26;;;;;;;6.80;3.47;;;;;;;25.42;62.67;98598.66;6078575;23;20161;-96
2022/09/11 04:53:56;;;;;;;5.60;3.07;;;;;;;25.50;62.56;98591.34;6079674;23;20632;-96
2022/09/11 04:56:23;;;;;;;4.67;3.00;;;;;;;25.53;62.12;98592.81;6080955;23;20593;-96
2022/09/11 04:58:54;;;;;;;6.60;3.40;;;;;;;25.57;62.08;98588.75;6083555;23;20244;-96
2022/09/11 05:01:26;;;;;;;11.10;3.30;;;;;;;25.59;61.86;98598.28;6083609;23;20644;-96
2022/09/11 05:03:52;;;;;;;8.30;3.37;;;;;;;25.69;61.78;98597.97;6080729;23;20163;-96
2022/09/11 05:06:18;;;;;;;8.30;3.30;;;;;;;25.76;61.50;98598.84;6083232;23;20153;-96
2022/09/11 05:08:54;;;;;;;8.40;2.90;;;;;;;25.74;61.04;98594.69;6082697;23;20193;-96
2022/09/11 05:11:25;;;;;;;6.27;3.00;;;;;;;25.73;61.17;98599.25;6084214;23;20148;-96
2022/09/11 05:13:57;;;;;;;6.93;2.87;;;;;;;25.75;61.23;98591.84;6083172;23;20204;-96
2022/09/11 05:16:22;;;;;;;5.17;3.13;;;;;;;25.80;60.96;98602.84;6085402;23;20196;-96
2022/09/11 05:19:06;;;;;;;7.53;3.20;;;;;;;25.84;60.61;98598.75;6084502;23;20184;-96
2022/09/11 05:21:38;;;;;;;5.93;3.13;;;;;;;25.76;60.39;98606.09;6087237;23;20156;-96
2022/09/11 05:24:06;;;;;;;4.93;2.93;;;;;;;25.76;60.46;98593.47;6085562;23;20212;-96
2022/09/11 05:26:35;;;;;;;8.17;3.20;;;;;;;25.66;60.56;98592.97;6088450;23;20152;-96
2022/09/11 05:29:22;;;;;;;4.33;2.57;;;;;;;25.72;60.93;98599.44;6084038;23;20157;-96
2022/09/11 05:31:51;;;;;;;6.40;3.80;;;;;;;25.79;60.72;98593.09;6087037;23;20152;-96
2022/09/11 05:34:21;;;;;;;10.90;3.53;;;;;;;25.79;60.41;98584.22;6084787;23;20153;-96
2022/09/11 05:36:49;;;;;;;5.50;3.27;;;;;;;25.62;60.90;98592.53;6085501;23;20649;-96
2022/09/11 05:39:17;;;;;;;5.00;2.83;;;;;;;25.67;60.81;98591.97;6086741;23;20372;-96
2022/09/11 05:41:54;;;;;;;3.90;2.23;;;;;;;25.97;60.13;98587.31;6079603;23;20488;-95
2022/09/11 05:44:21;;;;;;;5.10;2.77;;;;;;;26.07;59.51;98588.63;6081557;23;20204;-96
2022/09/11 05:46:55;;;;;;;5.87;3.07;;;;;;;26.05;59.55;98596.06;6082844;23;20156;-96
2022/09/11 05:49:29;;;;;;;4.77;2.73;;;;;;;26.05;60.03;98587.19;6083142;23;20156;-95
2022/09/11 05:52:03;;;;;;;5.80;3.00;;;;;;;26.22;59.16;98589.47;6082495;23;20176;-96
2022/09/11 05:54:47;;;;;;;7.90;2.83;;;;;;;26.30;58.92;98588.50;6089307;23;20152;-96
2022/09/11 05:57:23;;;;;;;8.10;3.97;;;;;;;26.43;57.94;98593.13;6111045;23;20204;-96
2022/09/11 06:00:03;;;;;;;7.03;2.90;;;;;;;26.36;57.87;98592.25;6086690;23;20204;-96
2022/09/11 06:02:29;;;;;;;5.80;2.73;;;;;;;26.47;58.33;98584.50;6078189;23;20240;-96
2022/09/11 06:05:06;;;;;;;4.40;2.57;;;;;;;26.71;56.87;98567.91;6055948;23;20161;-95
2022/09/11 06:07:34;;;;;;;7.80;3.07;;;;;;;26.80;56.83;98569.47;6054241;23;20153;-96
2022/09/11 06:10:00;;;;;;;7.37;2.93;;;;;;;26.71;56.43;98577.84;6054510;23;20625;-96
2022/09/11 06:12:33;;;;;;;6.78;2.55;;;;;;;26.95;56.11;98577.41;6054009;23;20181;-96
2022/09/11 06:14:59;;;;;;;6.75;2.58;;;;;;;27.08;54.74;98576.66;6055056;23;20157;-96
2022/09/11 06:17:32;;;;;;;5.57;2.63;;;;;;;27.24;54.60;98579.84;6055859;23;20200;-96
2022/09/11 06:19:58;;;;;;;7.45;3.33;;;;;;;27.14;54.16;98584.78;6055334;23;20169;-95
2022/09/11 06:22:28;;;;;;;3.90;2.05;;;;;;;27.38;54.13;98588.81;6054325;23;20161;-96
2022/09/11 06:24:59;;;;;;;4.22;2.63;;;;;;;27.16;52.82;98595.31;6055124;23;20191;-96
2022/09/11 06:27:25;;;;;;;7.63;2.70;;;;;;;26.99;53.58;98589.44;6054732;23;20157;-96
2022/09/11 06:29:59;;;;;;;6.68;2.80;;;;;;;27.29;52.87;98595.41;6058118;23;20597;-96
2022/09/11 06:32:25;;;;;;;6.03;2.80;;;;;;;27.39;52.58;98585.94;6054150;23;20162;-96
2022/09/11 06:34:50;;;;;;;5.22;2.40;;;;;;;27.60;51.17;98584.16;6057848;23;20210;-96
2022/09/11 06:37:49;;;;;;;4.82;2.58;;;;;;;27.68;49.83;98582.13;6076727;23;20142;-95
2022/09/11 06:40:20;;;;;;;10.75;2.65;;;;;;;27.73;50.49;98584.19;5943307;24;20238;-96
2022/09/11 06:42:58;;;;;;;4.43;2.13;;;;;;;27.65;50.89;98574.44;5963128;24;20148;-96
2022/09/11 06:45:32;;;;;;;5.20;2.10;;;;;;;28.14;50.51;98586.81;5965550;24;20163;-96
2022/09/11 06:48:18;;;;;;;6.28;2.50;;;;;;;28.46;48.50;98594.06;5967429;24;20148;-96
2022/09/11 06:50:49;;;;;;;3.55;2.10;;;;;;;28.57;48.18;98591.59;5992652;23;20157;-96
2022/09/11 06:57:19;;;;;;;;;;;;;;;;;;;;;
2022/09/11 07:03:20;;;;;;;4.68;2.42;;;;;;;28.63;46.50;98604.28;6061279;23;20197;-95
2022/09/11 07:05:57;;;;;;;4.72;2.20;;;;;;;28.38;47.70;98616.69;6053637;23;20161;-96
2022/09/11 07:08:29;;;;;;;5.25;2.55;;;;;;;28.41;47.33;98604.66;6052785;23;20153;-96
2022/09/11 07:11:03;;;;;;;6.63;3.13;;;;;;;28.74;47.06;98615.50;6057576;23;20157;-96
2022/09/11 07:13:49;;;;;;;3.65;2.25;;;;;;;28.97;45.84;98616.69;6057984;23;20148;-96
2022/09/11 07:16:45;;;;;;;8.48;3.42;;;;;;;29.47;45.38;98620.56;6056262;23;20157;-96
2022/09/11 07:19:17;;;;;;;3.75;2.13;;;;;;;29.40;45.20;98617.06;6046526;23;20189;-95
2022/09/11 07:22:44;;;;;;;8.32;2.72;;;;;;;29.58;44.81;98616.34;6050860;23;20153;-95
2022/09/11 07:25:27;;;;;;;4.75;2.45;;;;;;;29.73;44.50;98616.91;5938850;24;20401;-95
2022/09/11 07:28:05;;;;;;;;;;;;;;;;;;;;;
2022/09/11 07:30:36;;;;;;;8.27;2.97;;;;;;;29.75;44.32;98622.91;5965901;24;20179;-96
2022/09/11 07:33:12;;;;;;;5.45;2.50;;;;;;;29.62;44.02;98617.56;5969166;24;20159;-96
2022/09/11 07:35:38;;;;;;;7.78;2.70;;;;;;;29.68;43.96;98620.25;6003509;23;20157;-96
2022/09/11 07:38:12;;;;;;;7.18;2.78;;;;;;;29.58;44.45;98619.06;6049518;23;20153;-96
2022/09/11 07:40:43;;;;;;;9.63;2.50;;;;;;;29.82;43.10;98619.16;6050558;23;20244;-96
2022/09/11 07:43:09;;;;;;;4.45;2.53;;;;;;;29.96;42.31;98629.91;6051408;23;20156;-95
2022/09/11 07:45:34;;;;;;;4.93;2.25;;;;;;;30.05;42.67;98625.91;6050404;23;20168;-94
2022/09/11 07:48:14;;;;;;;8.02;2.53;;;;;;;29.85;42.70;98623.31;6051317;23;20196;-96
2022/09/11 07:50:40;;;;;;;4.63;2.50;;;;;;;29.66;42.84;98616.94;6053955;23;20141;-95
2022/09/11 07:53:06;;;;;;;30.98;5.38;;;;;;;29.62;43.93;98628.38;6053891;23;20214;-96
2022/09/11 07:55:42;;;;;;;6.07;2.80;;;;;;;29.78;42.18;98623.34;6059452;23;20144;-96
2022/09/11 07:58:21;;;;;;;;;;;;;;;;;;;;;
2022/09/11 08:00:56;;;;;;;3.35;1.83;;;;;;;30.03;42.73;98620.72;6075918;23;20600;-96
2022/09/11 08:03:22;;;;;;;6.03;2.53;;;;;;;30.33;41.42;98616.38;6049258;23;20149;-96
2022/09/11 08:05:48;;;;;;;4.50;2.00;;;;;;;30.38;40.84;98615.72;6050807;23;20192;-96
2022/09/11 08:08:22;;;;;;;8.20;2.63;;;;;;;29.96;41.14;98614.53;6054213;23;20252;-95
2022/09/11 08:10:48;;;;;;;5.85;1.98;;;;;;;29.86;41.20;98610.63;6051181;23;20212;-96
2022/09/11 08:13:17;;;;;;;4.90;2.25;;;;;;;30.14;41.61;98616.47;6047435;23;20157;-96
2022/09/11 08:15:46;;;;;;;5.68;2.00;;;;;;;30.62;40.30;98601.38;6048332;23;20195;-96
2022/09/11 08:18:15;;;;;;;4.32;2.22;;;;;;;30.86;38.91;98605.13;6053978;23;20209;-96
2022/09/11 08:20:40;;;;;;;4.65;2.40;;;;;;;30.93;38.83;98595.09;6052648;23;20215;-96
2022/09/11 08:23:07;;;;;;;4.00;2.15;;;;;;;31.23;38.97;98592.50;6049284;23;20157;-96
2022/09/11 08:25:38;;;;;;;5.45;2.35;;;;;;;31.48;38.28;98591.38;6044781;23;20158;-96
2022/09/11 08:28:05;;;;;;;5.88;2.15;;;;;;;31.58;36.93;98601.66;6052501;23;20157;-96
2022/09/11 08:30:32;;;;;;;5.03;1.70;;;;;;;31.60;36.32;98602.28;6046702;23;20211;-95
2022/09/11 08:33:00;;;;;;;5.38;1.63;;;;;;;31.81;35.15;98590.97;6049567;23;20153;-96
2022/09/11 08:35:32;;;;;;;6.28;1.40;;;;;;;31.79;34.71;98590.34;6051201;23;20161;-96
2022/09/11 08:37:57;;;;;;;5.07;1.95;;;;;;;31.80;35.25;98580.31;6047896;23;20649;-96
2022/09/11 08:40:23;;;;;;;4.78;1.40;;;;;;;32.14;35.42;98588.63;6044728;23;20200;-96
2022/09/11 08:43:00;;;;;;;2.97;1.63;;;;;;;32.17;35.29;98584.63;6049928;23;20161;-95
2022/09/11 08:45:35;;;;;;;3.88;1.88;;;;;;;32.43;35.42;98577.94;6053773;23;20161;-96
2022/09/11 08:48:01;;;;;;;7.53;3.10;;;;;;;32.49;34.72;98575.13;6054765;23;20161;-96
2022/09/11 08:51:10;;;;;;;3.65;1.73;;;;;;;32.82;34.86;98574.56;6055339;23;20169;-96
2022/09/11 08:54:03;;;;;;;4.70;1.70;;;;;;;32.75;34.32;98568.44;6058819;23;20181;-96
2022/09/11 08:56:40;;;;;;;;;;;;;;;;;;;;;
2022/09/11 08:59:48;;;;;;;3.90;1.60;;;;;;;33.08;34.06;98557.81;6081118;23;20232;-96
2022/09/11 09:03:15;;;;;;;4.93;1.40;;;;;;;32.95;32.92;98552.59;6060012;23;20226;-96
2022/09/11 09:06:23;;;;;;;4.32;2.05;;;;;;;32.94;33.29;98548.22;6083311;23;20283;-96
2022/09/11 09:13:11;;;;;;;3.58;1.45;;;;;;;32.63;33.31;98543.19;5957359;24;20166;-96
2022/09/11 09:15:57;;;;;;;4.13;1.98;;;;;;;32.85;32.19;98543.41;6039071;23;20212;-95
2022/09/11 09:18:49;;;;;;;1.73;1.17;;;;;;;32.61;32.57;98545.31;6057354;23;20145;-96
2022/09/11 09:24:59;;;;;;;4.55;1.35;;;;;;;32.93;31.49;98533.03;6077336;23;20189;-96
2022/09/11 09:27:33;;;;;;;3.83;1.38;;;;;;;33.12;30.62;98531.84;6054070;23;20173;-96
2022/09/11 09:30:46;;;;;;;5.97;1.58;;;;;;;33.11;30.55;98530.19;6054644;23;20125;-96
2022/09/11 09:33:31;;;;;;;4.07;1.65;;;;;;;33.04;32.08;98540.34;5975263;23;20508;-96
2022/09/11 09:36:27;;;;;;;1.95;1.23;;;;;;;33.01;31.94;98534.53;6053189;23;20145;-96
2022/09/11 09:38:57;;;;;;;2.72;1.52;;;;;;;32.98;32.70;98535.00;6060309;23;20189;-96
2022/09/11 09:41:42;;;;;;;3.15;1.40;;;;;;;32.93;32.42;98534.91;6057175;23;20577;-96
2022/09/11 09:44:41;;;;;;;2.75;1.40;;;;;;;32.92;32.21;98528.63;6057001;23;20169;-96
2022/09/11 09:47:31;;;;;;;6.65;2.22;;;;;;;33.09;32.13;98531.50;6055198;23;20164;-96
2022/09/11 09:49:57;;;;;;;3.03;1.52;;;;;;;33.30;31.68;98530.84;6052058;23;20184;-95
2022/09/11 09:52:44;;;;;;;3.25;1.30;;;;;;;33.35;31.22;98526.34;6055769;23;20157;-96
2022/09/11 09:55:15;;;;;;;3.65;1.50;;;;;;;33.55;30.46;98522.34;6059476;23;20169;-96
2022/09/11 09:57:42;;;;;;;3.42;1.33;;;;;;;33.71;30.44;98518.88;6051947;23;20220;-96
2022/09/11 10:00:07;;;;;;;2.42;1.50;;;;;;;33.98;30.88;98514.50;6051137;23;20193;-96
2022/09/11 10:02:40;;;;;;;3.05;1.58;;;;;;;34.21;30.15;98505.38;6054144;23;20193;-96
2022/09/11 10:05:17;;;;;;;4.40;1.52;;;;;;;34.50;29.92;98502.31;6052578;23;20161;-96
2022/09/11 10:08:05;;;;;;;3.55;1.05;;;;;;;34.79;29.74;98485.88;6058802;23;20151;-96
2022/09/11 10:10:39;;;;;;;5.32;1.88;;;;;;;34.91;30.39;98494.75;6082953;23;20153;-96
2022/09/11 10:13:27;;;;;;;5.07;1.52;;;;;;;34.77;29.82;98494.31;6062207;23;20149;-96
2022/09/11 10:16:11;;;;;;;1.95;1.10;;;;;;;34.50;29.82;98488.72;6060099;23;20149;-96
2022/09/11 10:18:56;;;;;;;2.53;1.33;;;;;;;34.58;30.60;98488.31;6059191;23;20177;-96
2022/09/11 10:21:48;;;;;;;3.95;1.38;;;;;;;34.74;29.93;98485.81;6076290;23;20157;-96
2022/09/11 10:24:55;;;;;;;3.28;1.25;;;;;;;34.58;29.06;98487.50;6083618;23;20515;-96
2022/09/11 10:27:33;;;;;;;2.35;0.90;;;;;;;34.48;28.94;98479.97;6036199;23;20164;-96
2022/09/11 10:29:59;;;;;;;2.97;1.35;;;;;;;34.67;29.00;98479.72;6051787;23;20240;-96
2022/09/11 10:32:41;;;;;;;2.33;1.13;;;;;;;34.85;28.35;98483.00;6058657;23;20157;-96
2022/09/11 10:35:30;;;;;;;2.55;1.33;;;;;;;34.80;28.53;98490.25;6083058;23;20524;-95
2022/09/11 10:38:07;;;;;;;3.90;1.55;;;;;;;34.70;27.94;98487.41;6055392;23;20156;-96
2022/09/11 10:40:33;;;;;;;2.03;0.98;;;;;;;34.64;28.42;98477.50;6052125;23;20172;-96
2022/09/11 10:42:58;;;;;;;3.20;1.02;;;;;;;34.21;28.90;98492.59;6052064;23;20168;-96
2022/09/11 10:45:27;;;;;;;4.88;1.20;;;;;;;34.30;29.40;98482.97;6053764;23;20556;-96
2022/09/11 10:47:52;;;;;;;3.25;1.08;;;;;;;34.65;27.73;98470.97;6056626;23;20168;-96
2022/09/11 10:51:11;;;;;;;3.05;1.25;;;;;;;35.12;27.68;98467.53;6057078;23;20283;-96
2022/09/11 10:54:16;;;;;;;4.63;1.38;;;;;;;35.38;28.65;98468.66;6018322;23;20188;-96
2022/09/11 10:57:27;;;;;;;6.32;1.92;;;;;;;35.61;28.21;98460.22;6056691;23;20137;-96
2022/09/11 11:00:10;;;;;;;2.17;0.73;;;;;;;35.87;26.54;98457.72;6057366;23;20201;-95
2022/09/11 11:03:01;;;;;;;;;;;;;;;;;;;;;
2022/09/11 11:06:09;;;;;;;2.38;0.93;;;;;;;35.97;25.64;98455.06;6089059;23;20145;-96
2022/09/11 11:08:54;;;;;;;1.90;0.85;;;;;;;36.06;26.13;98459.81;6055725;23;20157;-95
2022/09/11 11:11:54;;;;;;;1.13;0.70;;;;;;;36.31;25.46;98461.94;6053783;23;20252;-96
2022/09/11 11:14:38;;;;;;;1.40;0.77;;;;;;;36.65;25.14;98455.06;6051048;23;20157;-96
2022/09/11 11:17:36;;;;;;;2.05;1.05;;;;;;;36.59;25.15;98449.84;6049593;23;20160;-96
2022/09/11 11:20:25;;;;;;;2.58;0.90;;;;;;;36.77;25.03;98442.00;6049337;23;20200;-96
2022/09/11 11:23:13;;;;;;;2.15;0.95;;;;;;;36.62;24.61;98438.38;6058771;23;20161;-96
2022/09/11 11:26:02;;;;;;;1.77;1.00;;;;;;;36.83;24.28;98431.94;6050267;23;20236;-96
2022/09/11 11:28:31;;;;;;;1.75;0.82;;;;;;;36.74;24.20;98425.34;6047803;23;20173;-96
2022/09/11 11:31:20;;;;;;;1.20;0.60;;;;;;;36.85;23.96;98424.28;6049588;23;20165;-95
2022/09/11 11:33:50;;;;;;;1.77;0.88;;;;;;;36.99;23.94;98428.22;6051843;23;20145;-96
2022/09/11 11:36:57;;;;;;;1.35;0.77;;;;;;;37.04;23.83;98430.97;6050691;23;20162;-96
2022/09/11 11:40:02;;;;;;;2.47;0.82;;;;;;;37.35;23.29;98426.41;6033830;23;20244;-95
2022/09/11 11:42:34;;;;;;;1.80;0.77;;;;;;;37.34;23.00;98424.78;6024891;23;20249;-96
2022/09/11 11:45:21;;;;;;;1.10;0.60;;;;;;;37.51;23.14;98419.91;6047662;23;20224;-96
2022/09/11 11:47:53;;;;;;;1.95;0.68;;;;;;;37.37;22.92;98416.03;6048674;23;20160;-95
2022/09/11 11:50:47;;;;;;;1.73;0.90;;;;;;;37.46;23.06;98420.72;6047620;23;20142;-96
2022/09/11 11:53:23;;;;;;;2.65;0.63;;;;;;;36.87;23.23;98408.47;6049063;23;20154;-95
2022/09/11 11:56:13;;;;;;;1.65;0.80;;;;;;;37.36;23.23;98411.66;6052579;23;20149;-96
2022/09/11 11:59:01;;;;;;;2.25;0.93;;;;;;;37.68;23.25;98409.53;6054583;23;20604;-96
2022/09/11 12:01:41;;;;;;;1.83;0.73;;;;;;;37.47;22.49;98413.34;6050037;23;20150;-96
2022/09/11 12:04:23;;;;;;;3.00;1.00;;;;;;;37.81;22.63;98398.06;6044888;23;20565;-96
2022/09/11 12:06:58;;;;;;;1.65;0.85;;;;;;;37.58;22.36;98409.50;6052022;23;20596;-96
2022/09/11 12:09:30;;;;;;;0.93;0.50;;;;;;;37.25;22.86;98396.31;6054763;23;20164;-96
2022/09/11 12:12:03;;;;;;;1.92;1.08;;;;;;;37.24;23.58;98397.41;6051446;23;20150;-96
2022/09/11 12:14:32;;;;;;;2.85;0.85;;;;;;;37.18;22.88;98393.03;6051269;23;20217;-96
2022/09/11 12:17:39;;;;;;;0.70;0.47;;;;;;;37.45;23.53;98388.16;6057382;23;20158;-96
2022/09/11 12:20:57;;;;;;;;;;;;;;;;;;;;;
2022/09/11 12:23:56;;;;;;;3.03;1.23;;;;;;;36.97;23.71;98375.75;6057322;23;20157;-96
2022/09/11 12:26:26;;;;;;;2.35;1.02;;;;;;;36.68;24.10;98375.34;6055965;23;20221;-95
2022/09/11 12:29:17;;;;;;;4.05;1.30;;;;;;;37.11;23.79;98367.88;6055655;23;20233;-96
2022/09/11 12:32:03;;;;;;;1.63;0.70;;;;;;;37.62;23.64;98361.38;6044540;23;20146;-96
2022/09/11 12:34:38;;;;;;;2.35;1.05;;;;;;;37.94;23.22;98353.75;6029416;23;20509;-96
2022/09/11 12:37:15;;;;;;;1.70;1.05;;;;;;;37.96;22.90;98356.19;6046289;23;20162;-96
2022/09/11 12:39:59;;;;;;;1.08;0.57;;;;;;;37.80;22.85;98355.34;6047818;23;20174;-96
2022/09/11 12:42:27;;;;;;;2.67;0.93;;;;;;;37.77;23.64;98350.44;6049954;23;20150;-96
2022/09/11 12:44:54;;;;;;;2.03;0.85;;;;;;;37.93;23.54;98346.63;6047600;23;20157;-96
2022/09/11 12:47:41;;;;;;;3.03;1.10;;;;;;;37.85;23.98;98347.13;6051076;23;20168;-95
2022/09/11 12:50:10;;;;;;;2.65;0.80;;;;;;;37.90;23.89;98349.91;6070959;23;20480;-96
2022/09/11 12:52:46;;;;;;;2.47;1.05;;;;;;;37.52;23.73;98348.53;6052610;23;20238;-96
2022/09/11 12:55:43;;;;;;;1.27;0.52;;;;;;;37.29;23.88;98349.00;6053328;23;20146;-96
2022/09/11 12:58:33;;;;;;;2.45;0.73;;;;;;;37.62;24.07;98350.44;6053517;23;20154;-96